<?xml version="1.0" encoding="UTF-8" standalone="no" ?>
<gpx xmlns="http://www.topografix.com/GPX/1/1" xmlns:xsi="http://www.w3.org/2001/XMLSchema-instance" xsi:schemaLocation="http://www.topografix.com/GPX/1/1 http://www.topografix.com/GPX/1/1/gpx.xsd" version="1.1" creator="VisuGPX - https://www.visugpx.com">
  <metadata>
    <name>La Boissière</name>
    <desc><![CDATA[Boissiere]]></desc>
  </metadata>
  <trk>
    <name><![CDATA[Boissiere]]></name>
    <trkseg>
      <trkpt lat="43.66234" lon="3.64428">
        <ele>203.46</ele>
        <time>2016-01-13T09:49:53Z</time>
      </trkpt>
      <trkpt lat="43.66251" lon="3.64443">
        <ele>205.38</ele>
        <time>2016-01-13T10:03:37Z</time>
      </trkpt>
      <trkpt lat="43.6629" lon="3.64469">
        <ele>206.34</ele>
        <time>2016-01-13T10:04:12Z</time>
      </trkpt>
      <trkpt lat="43.66299" lon="3.64478">
        <ele>206.82</ele>
        <time>2016-01-13T10:04:23Z</time>
      </trkpt>
      <trkpt lat="43.66356" lon="3.64512">
        <ele>210.67</ele>
        <time>2016-01-13T10:05:14Z</time>
      </trkpt>
      <trkpt lat="43.66418" lon="3.64555">
        <ele>212.59</ele>
        <time>2016-01-13T10:06:10Z</time>
      </trkpt>
      <trkpt lat="43.66439" lon="3.64546">
        <ele>213.55</ele>
        <time>2016-01-13T10:06:28Z</time>
      </trkpt>
      <trkpt lat="43.66458" lon="3.64532">
        <ele>214.03</ele>
        <time>2016-01-13T10:06:44Z</time>
      </trkpt>
      <trkpt lat="43.66503" lon="3.64525">
        <ele>214.51</ele>
        <time>2016-01-13T10:07:19Z</time>
      </trkpt>
      <trkpt lat="43.66582" lon="3.64507">
        <ele>214.99</ele>
        <time>2016-01-13T10:08:25Z</time>
      </trkpt>
      <trkpt lat="43.66604" lon="3.64504">
        <ele>215.95</ele>
        <time>2016-01-13T10:08:43Z</time>
      </trkpt>
      <trkpt lat="43.66647" lon="3.64501">
        <ele>217.4</ele>
        <time>2016-01-13T10:09:19Z</time>
      </trkpt>
      <trkpt lat="43.66668" lon="3.64503">
        <ele>217.4</ele>
        <time>2016-01-13T10:09:35Z</time>
      </trkpt>
      <trkpt lat="43.66688" lon="3.6451">
        <ele>218.36</ele>
        <time>2016-01-13T10:09:53Z</time>
      </trkpt>
      <trkpt lat="43.66736" lon="3.64536">
        <ele>219.8</ele>
        <time>2016-01-13T10:10:35Z</time>
      </trkpt>
      <trkpt lat="43.66757" lon="3.64552">
        <ele>220.28</ele>
        <time>2016-01-13T10:10:53Z</time>
      </trkpt>
      <trkpt lat="43.66809" lon="3.64575">
        <ele>220.28</ele>
        <time>2016-01-13T10:11:36Z</time>
      </trkpt>
      <trkpt lat="43.6685" lon="3.64585">
        <ele>219.8</ele>
        <time>2016-01-13T10:12:08Z</time>
      </trkpt>
      <trkpt lat="43.66872" lon="3.64592">
        <ele>219.8</ele>
        <time>2016-01-13T10:12:24Z</time>
      </trkpt>
      <trkpt lat="43.66882" lon="3.64597">
        <ele>218.84</ele>
        <time>2016-01-13T10:12:33Z</time>
      </trkpt>
      <trkpt lat="43.66892" lon="3.64605">
        <ele>219.32</ele>
        <time>2016-01-13T10:12:42Z</time>
      </trkpt>
      <trkpt lat="43.66905" lon="3.64624">
        <ele>218.84</ele>
        <time>2016-01-13T10:13:08Z</time>
      </trkpt>
      <trkpt lat="43.66908" lon="3.64651">
        <ele>219.32</ele>
        <time>2016-01-13T10:13:26Z</time>
      </trkpt>
      <trkpt lat="43.6692" lon="3.64676">
        <ele>219.32</ele>
        <time>2016-01-13T10:13:45Z</time>
      </trkpt>
      <trkpt lat="43.66918" lon="3.64705">
        <ele>221.24</ele>
        <time>2016-01-13T10:14:11Z</time>
      </trkpt>
      <trkpt lat="43.66915" lon="3.6472">
        <ele>221.24</ele>
        <time>2016-01-13T10:14:21Z</time>
      </trkpt>
      <trkpt lat="43.66929" lon="3.64735">
        <ele>221.24</ele>
        <time>2016-01-13T10:14:42Z</time>
      </trkpt>
      <trkpt lat="43.66941" lon="3.64731">
        <ele>221.72</ele>
        <time>2016-01-13T10:14:53Z</time>
      </trkpt>
      <trkpt lat="43.6696" lon="3.64745">
        <ele>221.72</ele>
        <time>2016-01-13T10:15:16Z</time>
      </trkpt>
      <trkpt lat="43.67002" lon="3.64801">
        <ele>224.12</ele>
        <time>2016-01-13T10:16:15Z</time>
      </trkpt>
      <trkpt lat="43.6701" lon="3.64815">
        <ele>225.09</ele>
        <time>2016-01-13T10:16:31Z</time>
      </trkpt>
      <trkpt lat="43.6703" lon="3.64871">
        <ele>226.53</ele>
        <time>2016-01-13T10:17:32Z</time>
      </trkpt>
      <trkpt lat="43.67039" lon="3.64879">
        <ele>227.01</ele>
        <time>2016-01-13T10:19:22Z</time>
      </trkpt>
      <trkpt lat="43.67057" lon="3.64918">
        <ele>229.41</ele>
        <time>2016-01-13T10:19:55Z</time>
      </trkpt>
      <trkpt lat="43.67079" lon="3.64953">
        <ele>231.33</ele>
        <time>2016-01-13T10:20:28Z</time>
      </trkpt>
      <trkpt lat="43.67091" lon="3.64978">
        <ele>232.3</ele>
        <time>2016-01-13T10:20:54Z</time>
      </trkpt>
      <trkpt lat="43.67104" lon="3.65007">
        <ele>232.3</ele>
        <time>2016-01-13T10:21:19Z</time>
      </trkpt>
      <trkpt lat="43.67112" lon="3.65037">
        <ele>232.3</ele>
        <time>2016-01-13T10:21:42Z</time>
      </trkpt>
      <trkpt lat="43.67125" lon="3.65058">
        <ele>233.74</ele>
        <time>2016-01-13T10:22:03Z</time>
      </trkpt>
      <trkpt lat="43.67145" lon="3.65087">
        <ele>235.66</ele>
        <time>2016-01-13T10:22:32Z</time>
      </trkpt>
      <trkpt lat="43.67151" lon="3.65098">
        <ele>235.66</ele>
        <time>2016-01-13T10:22:42Z</time>
      </trkpt>
      <trkpt lat="43.6716" lon="3.65108">
        <ele>236.14</ele>
        <time>2016-01-13T10:22:53Z</time>
      </trkpt>
      <trkpt lat="43.67178" lon="3.6512">
        <ele>236.14</ele>
        <time>2016-01-13T10:23:14Z</time>
      </trkpt>
      <trkpt lat="43.67186" lon="3.6513">
        <ele>235.66</ele>
        <time>2016-01-13T10:23:23Z</time>
      </trkpt>
      <trkpt lat="43.67229" lon="3.65142">
        <ele>237.1</ele>
        <time>2016-01-13T10:24:02Z</time>
      </trkpt>
      <trkpt lat="43.67252" lon="3.65151">
        <ele>237.58</ele>
        <time>2016-01-13T10:24:22Z</time>
      </trkpt>
      <trkpt lat="43.67273" lon="3.65156">
        <ele>238.54</ele>
        <time>2016-01-13T10:24:42Z</time>
      </trkpt>
      <trkpt lat="43.6732" lon="3.65163">
        <ele>239.99</ele>
        <time>2016-01-13T10:25:29Z</time>
      </trkpt>
      <trkpt lat="43.67332" lon="3.65158">
        <ele>240.47</ele>
        <time>2016-01-13T10:25:40Z</time>
      </trkpt>
      <trkpt lat="43.6735" lon="3.6517">
        <ele>240.95</ele>
        <time>2016-01-13T10:26:04Z</time>
      </trkpt>
      <trkpt lat="43.67371" lon="3.65202">
        <ele>240.47</ele>
        <time>2016-01-13T10:26:37Z</time>
      </trkpt>
      <trkpt lat="43.67383" lon="3.65206">
        <ele>240.95</ele>
        <time>2016-01-13T10:26:47Z</time>
      </trkpt>
      <trkpt lat="43.67404" lon="3.65216">
        <ele>240.95</ele>
        <time>2016-01-13T10:27:09Z</time>
      </trkpt>
      <trkpt lat="43.67441" lon="3.65217">
        <ele>241.91</ele>
        <time>2016-01-13T10:29:59Z</time>
      </trkpt>
      <trkpt lat="43.67468" lon="3.65224">
        <ele>241.91</ele>
        <time>2016-01-13T10:30:57Z</time>
      </trkpt>
      <trkpt lat="43.67484" lon="3.65222">
        <ele>241.91</ele>
        <time>2016-01-13T10:31:19Z</time>
      </trkpt>
      <trkpt lat="43.67495" lon="3.65215">
        <ele>240.95</ele>
        <time>2016-01-13T10:31:37Z</time>
      </trkpt>
      <trkpt lat="43.67531" lon="3.65216">
        <ele>239.51</ele>
        <time>2016-01-13T10:32:51Z</time>
      </trkpt>
      <trkpt lat="43.67542" lon="3.65223">
        <ele>239.02</ele>
        <time>2016-01-13T10:33:09Z</time>
      </trkpt>
      <trkpt lat="43.6756" lon="3.65226">
        <ele>237.1</ele>
        <time>2016-01-13T10:33:44Z</time>
      </trkpt>
      <trkpt lat="43.6758" lon="3.65216">
        <ele>236.62</ele>
        <time>2016-01-13T10:34:23Z</time>
      </trkpt>
      <trkpt lat="43.67591" lon="3.65224">
        <ele>235.66</ele>
        <time>2016-01-13T10:34:37Z</time>
      </trkpt>
      <trkpt lat="43.67633" lon="3.65243">
        <ele>233.26</ele>
        <time>2016-01-13T10:35:32Z</time>
      </trkpt>
      <trkpt lat="43.67656" lon="3.65257">
        <ele>232.3</ele>
        <time>2016-01-13T10:36:02Z</time>
      </trkpt>
      <trkpt lat="43.6767" lon="3.65264">
        <ele>231.81</ele>
        <time>2016-01-13T10:36:17Z</time>
      </trkpt>
      <trkpt lat="43.67693" lon="3.65264">
        <ele>231.81</ele>
        <time>2016-01-13T10:36:39Z</time>
      </trkpt>
      <trkpt lat="43.67706" lon="3.65268">
        <ele>232.3</ele>
        <time>2016-01-13T10:36:49Z</time>
      </trkpt>
      <trkpt lat="43.67716" lon="3.65273">
        <ele>232.3</ele>
        <time>2016-01-13T10:37:01Z</time>
      </trkpt>
      <trkpt lat="43.67728" lon="3.65276">
        <ele>232.3</ele>
        <time>2016-01-13T10:37:13Z</time>
      </trkpt>
      <trkpt lat="43.67778" lon="3.65269">
        <ele>233.26</ele>
        <time>2016-01-13T10:37:55Z</time>
      </trkpt>
      <trkpt lat="43.67822" lon="3.65271">
        <ele>234.22</ele>
        <time>2016-01-13T10:38:35Z</time>
      </trkpt>
      <trkpt lat="43.67854" lon="3.65284">
        <ele>234.7</ele>
        <time>2016-01-13T10:39:05Z</time>
      </trkpt>
      <trkpt lat="43.67907" lon="3.65299">
        <ele>232.78</ele>
        <time>2016-01-13T10:39:53Z</time>
      </trkpt>
      <trkpt lat="43.67965" lon="3.65323">
        <ele>232.3</ele>
        <time>2016-01-13T10:40:36Z</time>
      </trkpt>
      <trkpt lat="43.68015" lon="3.65348">
        <ele>230.37</ele>
        <time>2016-01-13T10:41:21Z</time>
      </trkpt>
      <trkpt lat="43.68026" lon="3.65358">
        <ele>229.41</ele>
        <time>2016-01-13T10:41:32Z</time>
      </trkpt>
      <trkpt lat="43.68053" lon="3.65369">
        <ele>227.97</ele>
        <time>2016-01-13T10:41:54Z</time>
      </trkpt>
      <trkpt lat="43.68077" lon="3.65384">
        <ele>226.05</ele>
        <time>2016-01-13T10:42:18Z</time>
      </trkpt>
      <trkpt lat="43.68089" lon="3.65394">
        <ele>225.57</ele>
        <time>2016-01-13T10:42:30Z</time>
      </trkpt>
      <trkpt lat="43.68124" lon="3.65411">
        <ele>225.09</ele>
        <time>2016-01-13T10:43:01Z</time>
      </trkpt>
      <trkpt lat="43.68136" lon="3.65419">
        <ele>225.09</ele>
        <time>2016-01-13T10:43:12Z</time>
      </trkpt>
      <trkpt lat="43.6815" lon="3.65423">
        <ele>224.12</ele>
        <time>2016-01-13T10:43:23Z</time>
      </trkpt>
      <trkpt lat="43.68163" lon="3.65419">
        <ele>223.16</ele>
        <time>2016-01-13T10:43:52Z</time>
      </trkpt>
      <trkpt lat="43.68183" lon="3.65382">
        <ele>221.72</ele>
        <time>2016-01-13T10:44:21Z</time>
      </trkpt>
      <trkpt lat="43.68187" lon="3.65368">
        <ele>221.24</ele>
        <time>2016-01-13T10:46:10Z</time>
      </trkpt>
      <trkpt lat="43.68197" lon="3.65419">
        <ele>223.16</ele>
        <time>2016-01-13T10:49:13Z</time>
      </trkpt>
      <trkpt lat="43.68203" lon="3.65437">
        <ele>224.61</ele>
        <time>2016-01-13T10:49:41Z</time>
      </trkpt>
      <trkpt lat="43.68246" lon="3.65441">
        <ele>225.57</ele>
        <time>2016-01-13T10:50:19Z</time>
      </trkpt>
      <trkpt lat="43.68293" lon="3.65443">
        <ele>227.01</ele>
        <time>2016-01-13T10:50:55Z</time>
      </trkpt>
      <trkpt lat="43.68381" lon="3.65454">
        <ele>231.33</ele>
        <time>2016-01-13T10:52:10Z</time>
      </trkpt>
      <trkpt lat="43.68497" lon="3.65513">
        <ele>238.06</ele>
        <time>2016-01-13T10:53:53Z</time>
      </trkpt>
      <trkpt lat="43.68535" lon="3.65538">
        <ele>235.18</ele>
        <time>2016-01-13T10:54:30Z</time>
      </trkpt>
      <trkpt lat="43.68546" lon="3.65542">
        <ele>233.74</ele>
        <time>2016-01-13T10:54:39Z</time>
      </trkpt>
      <trkpt lat="43.68692" lon="3.65623">
        <ele>222.68</ele>
        <time>2016-01-13T10:56:42Z</time>
      </trkpt>
      <trkpt lat="43.68769" lon="3.65635">
        <ele>227.01</ele>
        <time>2016-01-13T10:57:50Z</time>
      </trkpt>
      <trkpt lat="43.68794" lon="3.65636">
        <ele>228.93</ele>
        <time>2016-01-13T10:58:17Z</time>
      </trkpt>
      <trkpt lat="43.68819" lon="3.65643">
        <ele>228.93</ele>
        <time>2016-01-13T10:58:36Z</time>
      </trkpt>
      <trkpt lat="43.6883" lon="3.65652">
        <ele>227.97</ele>
        <time>2016-01-13T10:58:46Z</time>
      </trkpt>
      <trkpt lat="43.6884" lon="3.65664">
        <ele>227.01</ele>
        <time>2016-01-13T10:58:56Z</time>
      </trkpt>
      <trkpt lat="43.68863" lon="3.65682">
        <ele>226.05</ele>
        <time>2016-01-13T10:59:23Z</time>
      </trkpt>
      <trkpt lat="43.68837" lon="3.65651">
        <ele>227.97</ele>
        <time>2016-01-13T11:01:14Z</time>
      </trkpt>
      <trkpt lat="43.68826" lon="3.65643">
        <ele>229.41</ele>
        <time>2016-01-13T11:01:27Z</time>
      </trkpt>
      <trkpt lat="43.68813" lon="3.65638">
        <ele>228.93</ele>
        <time>2016-01-13T11:05:09Z</time>
      </trkpt>
      <trkpt lat="43.68791" lon="3.65638">
        <ele>227.97</ele>
        <time>2016-01-13T11:05:30Z</time>
      </trkpt>
      <trkpt lat="43.68733" lon="3.65629">
        <ele>222.2</ele>
        <time>2016-01-13T11:06:20Z</time>
      </trkpt>
      <trkpt lat="43.68709" lon="3.65628">
        <ele>221.24</ele>
        <time>2016-01-13T11:06:38Z</time>
      </trkpt>
      <trkpt lat="43.68694" lon="3.65622">
        <ele>222.68</ele>
        <time>2016-01-13T11:06:51Z</time>
      </trkpt>
      <trkpt lat="43.68656" lon="3.65597">
        <ele>224.12</ele>
        <time>2016-01-13T11:07:24Z</time>
      </trkpt>
      <trkpt lat="43.68602" lon="3.65568">
        <ele>228.45</ele>
        <time>2016-01-13T11:08:12Z</time>
      </trkpt>
      <trkpt lat="43.68539" lon="3.65531">
        <ele>234.22</ele>
        <time>2016-01-13T11:09:11Z</time>
      </trkpt>
      <trkpt lat="43.68514" lon="3.65521">
        <ele>235.66</ele>
        <time>2016-01-13T11:09:30Z</time>
      </trkpt>
      <trkpt lat="43.68417" lon="3.65469">
        <ele>231.33</ele>
        <time>2016-01-13T11:10:52Z</time>
      </trkpt>
      <trkpt lat="43.68385" lon="3.65454">
        <ele>229.41</ele>
        <time>2016-01-13T11:11:17Z</time>
      </trkpt>
      <trkpt lat="43.68374" lon="3.65451">
        <ele>228.93</ele>
        <time>2016-01-13T11:11:27Z</time>
      </trkpt>
      <trkpt lat="43.68351" lon="3.6545">
        <ele>227.01</ele>
        <time>2016-01-13T11:11:46Z</time>
      </trkpt>
      <trkpt lat="43.68307" lon="3.65445">
        <ele>225.09</ele>
        <time>2016-01-13T11:12:21Z</time>
      </trkpt>
      <trkpt lat="43.68286" lon="3.65438">
        <ele>224.12</ele>
        <time>2016-01-13T11:12:37Z</time>
      </trkpt>
      <trkpt lat="43.68269" lon="3.65422">
        <ele>222.68</ele>
        <time>2016-01-13T11:12:56Z</time>
      </trkpt>
      <trkpt lat="43.68249" lon="3.65409">
        <ele>221.24</ele>
        <time>2016-01-13T11:13:14Z</time>
      </trkpt>
      <trkpt lat="43.68233" lon="3.65378">
        <ele>219.8</ele>
        <time>2016-01-13T11:13:38Z</time>
      </trkpt>
      <trkpt lat="43.68214" lon="3.65323">
        <ele>219.32</ele>
        <time>2016-01-13T11:14:23Z</time>
      </trkpt>
      <trkpt lat="43.68209" lon="3.65293">
        <ele>217.4</ele>
        <time>2016-01-13T11:14:42Z</time>
      </trkpt>
      <trkpt lat="43.68203" lon="3.65279">
        <ele>218.36</ele>
        <time>2016-01-13T11:14:51Z</time>
      </trkpt>
      <trkpt lat="43.68196" lon="3.65268">
        <ele>218.36</ele>
        <time>2016-01-13T11:14:59Z</time>
      </trkpt>
      <trkpt lat="43.68192" lon="3.65253">
        <ele>218.36</ele>
        <time>2016-01-13T11:15:09Z</time>
      </trkpt>
      <trkpt lat="43.68191" lon="3.65235">
        <ele>216.91</ele>
        <time>2016-01-13T11:15:22Z</time>
      </trkpt>
      <trkpt lat="43.68187" lon="3.65219">
        <ele>216.91</ele>
        <time>2016-01-13T11:15:32Z</time>
      </trkpt>
      <trkpt lat="43.68181" lon="3.65204">
        <ele>216.91</ele>
        <time>2016-01-13T11:15:42Z</time>
      </trkpt>
      <trkpt lat="43.68167" lon="3.65121">
        <ele>212.59</ele>
        <time>2016-01-13T11:16:36Z</time>
      </trkpt>
      <trkpt lat="43.68161" lon="3.65103">
        <ele>212.59</ele>
        <time>2016-01-13T11:16:48Z</time>
      </trkpt>
      <trkpt lat="43.68157" lon="3.65056">
        <ele>211.15</ele>
        <time>2016-01-13T11:17:17Z</time>
      </trkpt>
      <trkpt lat="43.68149" lon="3.6504">
        <ele>210.67</ele>
        <time>2016-01-13T11:17:36Z</time>
      </trkpt>
      <trkpt lat="43.68136" lon="3.65034">
        <ele>211.15</ele>
        <time>2016-01-13T11:17:49Z</time>
      </trkpt>
      <trkpt lat="43.68125" lon="3.65023">
        <ele>211.63</ele>
        <time>2016-01-13T11:18:01Z</time>
      </trkpt>
      <trkpt lat="43.68106" lon="3.64997">
        <ele>210.67</ele>
        <time>2016-01-13T11:18:22Z</time>
      </trkpt>
      <trkpt lat="43.68083" lon="3.64959">
        <ele>209.22</ele>
        <time>2016-01-13T11:18:51Z</time>
      </trkpt>
      <trkpt lat="43.68078" lon="3.64944">
        <ele>208.74</ele>
        <time>2016-01-13T11:19:00Z</time>
      </trkpt>
      <trkpt lat="43.6806" lon="3.64902">
        <ele>206.82</ele>
        <time>2016-01-13T11:19:31Z</time>
      </trkpt>
      <trkpt lat="43.68042" lon="3.64874">
        <ele>205.86</ele>
        <time>2016-01-13T11:19:50Z</time>
      </trkpt>
      <trkpt lat="43.68039" lon="3.64859">
        <ele>205.38</ele>
        <time>2016-01-13T11:20:00Z</time>
      </trkpt>
      <trkpt lat="43.68037" lon="3.64841">
        <ele>205.38</ele>
        <time>2016-01-13T11:20:09Z</time>
      </trkpt>
      <trkpt lat="43.68026" lon="3.64781">
        <ele>205.38</ele>
        <time>2016-01-13T11:20:53Z</time>
      </trkpt>
      <trkpt lat="43.68024" lon="3.6475">
        <ele>204.9</ele>
        <time>2016-01-13T11:21:12Z</time>
      </trkpt>
      <trkpt lat="43.68021" lon="3.64735">
        <ele>204.9</ele>
        <time>2016-01-13T11:21:22Z</time>
      </trkpt>
      <trkpt lat="43.68014" lon="3.64723">
        <ele>204.9</ele>
        <time>2016-01-13T11:21:31Z</time>
      </trkpt>
      <trkpt lat="43.67977" lon="3.64694">
        <ele>205.86</ele>
        <time>2016-01-13T11:22:13Z</time>
      </trkpt>
      <trkpt lat="43.67944" lon="3.6468">
        <ele>204.9</ele>
        <time>2016-01-13T11:22:45Z</time>
      </trkpt>
      <trkpt lat="43.67935" lon="3.64668">
        <ele>204.42</ele>
        <time>2016-01-13T11:22:55Z</time>
      </trkpt>
      <trkpt lat="43.67923" lon="3.6466">
        <ele>204.42</ele>
        <time>2016-01-13T11:23:07Z</time>
      </trkpt>
      <trkpt lat="43.6791" lon="3.64657">
        <ele>204.42</ele>
        <time>2016-01-13T11:23:18Z</time>
      </trkpt>
      <trkpt lat="43.67897" lon="3.64649">
        <ele>203.94</ele>
        <time>2016-01-13T11:23:30Z</time>
      </trkpt>
      <trkpt lat="43.67873" lon="3.64643">
        <ele>203.46</ele>
        <time>2016-01-13T11:23:50Z</time>
      </trkpt>
      <trkpt lat="43.6786" lon="3.64635">
        <ele>202.49</ele>
        <time>2016-01-13T11:24:01Z</time>
      </trkpt>
      <trkpt lat="43.67846" lon="3.64631">
        <ele>202.01</ele>
        <time>2016-01-13T11:24:12Z</time>
      </trkpt>
      <trkpt lat="43.67835" lon="3.64622">
        <ele>202.01</ele>
        <time>2016-01-13T11:24:23Z</time>
      </trkpt>
      <trkpt lat="43.67822" lon="3.64615">
        <ele>201.53</ele>
        <time>2016-01-13T11:24:35Z</time>
      </trkpt>
      <trkpt lat="43.67796" lon="3.64606">
        <ele>200.09</ele>
        <time>2016-01-13T11:24:57Z</time>
      </trkpt>
      <trkpt lat="43.67777" lon="3.6458">
        <ele>201.53</ele>
        <time>2016-01-13T11:25:26Z</time>
      </trkpt>
      <trkpt lat="43.67794" lon="3.64532">
        <ele>200.09</ele>
        <time>2016-01-13T11:26:41Z</time>
      </trkpt>
      <trkpt lat="43.67788" lon="3.64548">
        <ele>201.53</ele>
        <time>2016-01-13T11:28:18Z</time>
      </trkpt>
      <trkpt lat="43.67785" lon="3.64563">
        <ele>202.01</ele>
        <time>2016-01-13T11:28:30Z</time>
      </trkpt>
      <trkpt lat="43.67775" lon="3.64572">
        <ele>202.01</ele>
        <time>2016-01-13T11:28:45Z</time>
      </trkpt>
      <trkpt lat="43.67767" lon="3.64563">
        <ele>202.49</ele>
        <time>2016-01-13T11:28:55Z</time>
      </trkpt>
      <trkpt lat="43.67762" lon="3.64533">
        <ele>202.98</ele>
        <time>2016-01-13T11:29:14Z</time>
      </trkpt>
      <trkpt lat="43.67758" lon="3.64518">
        <ele>202.98</ele>
        <time>2016-01-13T11:29:24Z</time>
      </trkpt>
      <trkpt lat="43.67739" lon="3.64479">
        <ele>203.46</ele>
        <time>2016-01-13T11:29:53Z</time>
      </trkpt>
      <trkpt lat="43.67733" lon="3.64463">
        <ele>202.98</ele>
        <time>2016-01-13T11:30:04Z</time>
      </trkpt>
      <trkpt lat="43.67739" lon="3.64433">
        <ele>202.01</ele>
        <time>2016-01-13T11:30:22Z</time>
      </trkpt>
      <trkpt lat="43.67744" lon="3.64421">
        <ele>202.01</ele>
        <time>2016-01-13T11:31:10Z</time>
      </trkpt>
      <trkpt lat="43.67752" lon="3.64394">
        <ele>201.53</ele>
        <time>2016-01-13T11:31:29Z</time>
      </trkpt>
      <trkpt lat="43.67761" lon="3.64385">
        <ele>201.05</ele>
        <time>2016-01-13T11:31:38Z</time>
      </trkpt>
      <trkpt lat="43.67768" lon="3.64374">
        <ele>201.05</ele>
        <time>2016-01-13T11:31:47Z</time>
      </trkpt>
      <trkpt lat="43.67768" lon="3.64344">
        <ele>200.57</ele>
        <time>2016-01-13T11:32:05Z</time>
      </trkpt>
      <trkpt lat="43.67772" lon="3.64313">
        <ele>199.61</ele>
        <time>2016-01-13T11:32:26Z</time>
      </trkpt>
      <trkpt lat="43.67778" lon="3.64299">
        <ele>199.13</ele>
        <time>2016-01-13T11:32:36Z</time>
      </trkpt>
      <trkpt lat="43.67786" lon="3.64272">
        <ele>199.13</ele>
        <time>2016-01-13T11:32:53Z</time>
      </trkpt>
      <trkpt lat="43.67789" lon="3.64257">
        <ele>198.65</ele>
        <time>2016-01-13T11:33:01Z</time>
      </trkpt>
      <trkpt lat="43.6779" lon="3.64228">
        <ele>198.17</ele>
        <time>2016-01-13T11:33:22Z</time>
      </trkpt>
      <trkpt lat="43.67814" lon="3.6421">
        <ele>203.94</ele>
        <time>2016-01-13T12:21:25Z</time>
      </trkpt>
      <trkpt lat="43.67846" lon="3.64199">
        <ele>203.94</ele>
        <time>2016-01-13T12:21:55Z</time>
      </trkpt>
      <trkpt lat="43.67945" lon="3.64176">
        <ele>202.98</ele>
        <time>2016-01-13T12:23:23Z</time>
      </trkpt>
      <trkpt lat="43.6803" lon="3.64164">
        <ele>198.65</ele>
        <time>2016-01-13T12:24:30Z</time>
      </trkpt>
      <trkpt lat="43.68097" lon="3.64158">
        <ele>194.32</ele>
        <time>2016-01-13T12:25:24Z</time>
      </trkpt>
      <trkpt lat="43.68203" lon="3.64167">
        <ele>194.8</ele>
        <time>2016-01-13T12:26:49Z</time>
      </trkpt>
      <trkpt lat="43.68268" lon="3.64181">
        <ele>196.25</ele>
        <time>2016-01-13T12:27:43Z</time>
      </trkpt>
      <trkpt lat="43.6829" lon="3.64174">
        <ele>195.28</ele>
        <time>2016-01-13T12:28:02Z</time>
      </trkpt>
      <trkpt lat="43.68312" lon="3.64162">
        <ele>193.36</ele>
        <time>2016-01-13T12:28:19Z</time>
      </trkpt>
      <trkpt lat="43.68343" lon="3.6414">
        <ele>191.92</ele>
        <time>2016-01-13T12:28:46Z</time>
      </trkpt>
      <trkpt lat="43.68394" lon="3.64096">
        <ele>193.36</ele>
        <time>2016-01-13T12:29:32Z</time>
      </trkpt>
      <trkpt lat="43.68417" lon="3.64083">
        <ele>193.84</ele>
        <time>2016-01-13T12:29:52Z</time>
      </trkpt>
      <trkpt lat="43.68465" lon="3.64067">
        <ele>196.73</ele>
        <time>2016-01-13T12:30:33Z</time>
      </trkpt>
      <trkpt lat="43.68483" lon="3.64048">
        <ele>197.21</ele>
        <time>2016-01-13T12:30:52Z</time>
      </trkpt>
      <trkpt lat="43.68533" lon="3.64001">
        <ele>199.13</ele>
        <time>2016-01-13T12:31:41Z</time>
      </trkpt>
      <trkpt lat="43.68557" lon="3.63968">
        <ele>200.09</ele>
        <time>2016-01-13T12:32:08Z</time>
      </trkpt>
      <trkpt lat="43.6857" lon="3.63942">
        <ele>200.57</ele>
        <time>2016-01-13T12:32:27Z</time>
      </trkpt>
      <trkpt lat="43.68588" lon="3.63897">
        <ele>202.01</ele>
        <time>2016-01-13T12:32:54Z</time>
      </trkpt>
      <trkpt lat="43.68615" lon="3.638">
        <ele>205.38</ele>
        <time>2016-01-13T12:33:53Z</time>
      </trkpt>
      <trkpt lat="43.68631" lon="3.63783">
        <ele>204.9</ele>
        <time>2016-01-13T12:34:09Z</time>
      </trkpt>
      <trkpt lat="43.68647" lon="3.63769">
        <ele>204.9</ele>
        <time>2016-01-13T12:34:23Z</time>
      </trkpt>
      <trkpt lat="43.68693" lon="3.63707">
        <ele>203.94</ele>
        <time>2016-01-13T12:35:11Z</time>
      </trkpt>
      <trkpt lat="43.68726" lon="3.63668">
        <ele>203.46</ele>
        <time>2016-01-13T12:35:45Z</time>
      </trkpt>
      <trkpt lat="43.68756" lon="3.63624">
        <ele>202.98</ele>
        <time>2016-01-13T12:36:19Z</time>
      </trkpt>
      <trkpt lat="43.68801" lon="3.63525">
        <ele>203.46</ele>
        <time>2016-01-13T12:37:24Z</time>
      </trkpt>
      <trkpt lat="43.68813" lon="3.63485">
        <ele>203.94</ele>
        <time>2016-01-13T12:37:49Z</time>
      </trkpt>
      <trkpt lat="43.68826" lon="3.63464">
        <ele>202.49</ele>
        <time>2016-01-13T12:38:05Z</time>
      </trkpt>
      <trkpt lat="43.68845" lon="3.63463">
        <ele>202.01</ele>
        <time>2016-01-13T12:38:21Z</time>
      </trkpt>
      <trkpt lat="43.68862" lon="3.63479">
        <ele>201.05</ele>
        <time>2016-01-13T12:38:38Z</time>
      </trkpt>
      <trkpt lat="43.68882" lon="3.63476">
        <ele>199.61</ele>
        <time>2016-01-13T12:38:54Z</time>
      </trkpt>
      <trkpt lat="43.68886" lon="3.63451">
        <ele>196.73</ele>
        <time>2016-01-13T12:39:11Z</time>
      </trkpt>
      <trkpt lat="43.68883" lon="3.63436">
        <ele>196.73</ele>
        <time>2016-01-13T12:39:19Z</time>
      </trkpt>
      <trkpt lat="43.68872" lon="3.63409">
        <ele>195.28</ele>
        <time>2016-01-13T12:39:36Z</time>
      </trkpt>
      <trkpt lat="43.68847" lon="3.63359">
        <ele>193.36</ele>
        <time>2016-01-13T12:40:44Z</time>
      </trkpt>
      <trkpt lat="43.68816" lon="3.63325">
        <ele>191.92</ele>
        <time>2016-01-13T12:42:19Z</time>
      </trkpt>
      <trkpt lat="43.68807" lon="3.63298">
        <ele>191.44</ele>
        <time>2016-01-13T12:42:37Z</time>
      </trkpt>
      <trkpt lat="43.68804" lon="3.63275">
        <ele>190</ele>
        <time>2016-01-13T12:44:39Z</time>
      </trkpt>
      <trkpt lat="43.68822" lon="3.63263">
        <ele>189.04</ele>
        <time>2016-01-13T12:45:02Z</time>
      </trkpt>
      <trkpt lat="43.68845" lon="3.6326">
        <ele>187.59</ele>
        <time>2016-01-13T12:45:22Z</time>
      </trkpt>
      <trkpt lat="43.68867" lon="3.63254">
        <ele>186.15</ele>
        <time>2016-01-13T12:45:42Z</time>
      </trkpt>
      <trkpt lat="43.68875" lon="3.63244">
        <ele>186.63</ele>
        <time>2016-01-13T12:45:51Z</time>
      </trkpt>
      <trkpt lat="43.68891" lon="3.63207">
        <ele>185.19</ele>
        <time>2016-01-13T12:46:16Z</time>
      </trkpt>
      <trkpt lat="43.68898" lon="3.63195">
        <ele>185.67</ele>
        <time>2016-01-13T12:46:25Z</time>
      </trkpt>
      <trkpt lat="43.68931" lon="3.63161">
        <ele>184.71</ele>
        <time>2016-01-13T12:46:59Z</time>
      </trkpt>
      <trkpt lat="43.68938" lon="3.6315">
        <ele>184.23</ele>
        <time>2016-01-13T12:47:08Z</time>
      </trkpt>
      <trkpt lat="43.68943" lon="3.63123">
        <ele>184.71</ele>
        <time>2016-01-13T12:47:26Z</time>
      </trkpt>
      <trkpt lat="43.68931" lon="3.63087">
        <ele>184.23</ele>
        <time>2016-01-13T12:47:53Z</time>
      </trkpt>
      <trkpt lat="43.68923" lon="3.63075">
        <ele>184.23</ele>
        <time>2016-01-13T12:48:04Z</time>
      </trkpt>
      <trkpt lat="43.68913" lon="3.63039">
        <ele>183.27</ele>
        <time>2016-01-13T12:48:28Z</time>
      </trkpt>
      <trkpt lat="43.68911" lon="3.63022">
        <ele>183.27</ele>
        <time>2016-01-13T12:48:41Z</time>
      </trkpt>
      <trkpt lat="43.68904" lon="3.63">
        <ele>183.27</ele>
        <time>2016-01-13T12:48:54Z</time>
      </trkpt>
      <trkpt lat="43.6889" lon="3.62964">
        <ele>182.31</ele>
        <time>2016-01-13T12:49:21Z</time>
      </trkpt>
      <trkpt lat="43.68873" lon="3.62934">
        <ele>182.31</ele>
        <time>2016-01-13T12:49:44Z</time>
      </trkpt>
      <trkpt lat="43.68855" lon="3.62895">
        <ele>182.31</ele>
        <time>2016-01-13T12:50:10Z</time>
      </trkpt>
      <trkpt lat="43.68817" lon="3.62836">
        <ele>183.75</ele>
        <time>2016-01-13T12:51:02Z</time>
      </trkpt>
      <trkpt lat="43.68813" lon="3.6282">
        <ele>182.79</ele>
        <time>2016-01-13T12:51:11Z</time>
      </trkpt>
      <trkpt lat="43.68813" lon="3.62792">
        <ele>182.31</ele>
        <time>2016-01-13T12:51:27Z</time>
      </trkpt>
      <trkpt lat="43.68817" lon="3.62762">
        <ele>181.35</ele>
        <time>2016-01-13T12:51:45Z</time>
      </trkpt>
      <trkpt lat="43.68817" lon="3.62729">
        <ele>180.87</ele>
        <time>2016-01-13T12:52:03Z</time>
      </trkpt>
      <trkpt lat="43.68814" lon="3.62699">
        <ele>178.94</ele>
        <time>2016-01-13T12:52:21Z</time>
      </trkpt>
      <trkpt lat="43.68804" lon="3.62672">
        <ele>177.02</ele>
        <time>2016-01-13T12:52:38Z</time>
      </trkpt>
      <trkpt lat="43.68789" lon="3.62618">
        <ele>173.66</ele>
        <time>2016-01-13T12:53:13Z</time>
      </trkpt>
      <trkpt lat="43.68784" lon="3.62604">
        <ele>172.69</ele>
        <time>2016-01-13T12:53:22Z</time>
      </trkpt>
      <trkpt lat="43.68771" lon="3.62583">
        <ele>172.69</ele>
        <time>2016-01-13T12:53:38Z</time>
      </trkpt>
      <trkpt lat="43.68765" lon="3.62569">
        <ele>172.21</ele>
        <time>2016-01-13T12:53:47Z</time>
      </trkpt>
      <trkpt lat="43.68745" lon="3.62502">
        <ele>170.77</ele>
        <time>2016-01-13T12:54:30Z</time>
      </trkpt>
      <trkpt lat="43.68733" lon="3.62478">
        <ele>170.29</ele>
        <time>2016-01-13T12:54:50Z</time>
      </trkpt>
      <trkpt lat="43.68716" lon="3.62458">
        <ele>168.37</ele>
        <time>2016-01-13T12:55:09Z</time>
      </trkpt>
      <trkpt lat="43.68709" lon="3.62447">
        <ele>166.93</ele>
        <time>2016-01-13T12:55:19Z</time>
      </trkpt>
      <trkpt lat="43.68704" lon="3.62432">
        <ele>166.45</ele>
        <time>2016-01-13T12:55:31Z</time>
      </trkpt>
      <trkpt lat="43.68689" lon="3.62408">
        <ele>166.45</ele>
        <time>2016-01-13T12:55:51Z</time>
      </trkpt>
      <trkpt lat="43.68671" lon="3.62387">
        <ele>166.45</ele>
        <time>2016-01-13T12:56:10Z</time>
      </trkpt>
      <trkpt lat="43.68648" lon="3.62373">
        <ele>166.45</ele>
        <time>2016-01-13T12:56:31Z</time>
      </trkpt>
      <trkpt lat="43.68639" lon="3.62365">
        <ele>166.45</ele>
        <time>2016-01-13T12:56:41Z</time>
      </trkpt>
      <trkpt lat="43.68628" lon="3.62353">
        <ele>166.93</ele>
        <time>2016-01-13T12:56:52Z</time>
      </trkpt>
      <trkpt lat="43.68612" lon="3.6233">
        <ele>166.93</ele>
        <time>2016-01-13T12:57:12Z</time>
      </trkpt>
      <trkpt lat="43.68595" lon="3.623">
        <ele>166.93</ele>
        <time>2016-01-13T12:58:08Z</time>
      </trkpt>
      <trkpt lat="43.68574" lon="3.62232">
        <ele>167.89</ele>
        <time>2016-01-13T12:58:56Z</time>
      </trkpt>
      <trkpt lat="43.68564" lon="3.62216">
        <ele>167.41</ele>
        <time>2016-01-13T12:59:08Z</time>
      </trkpt>
      <trkpt lat="43.68554" lon="3.62204">
        <ele>166.45</ele>
        <time>2016-01-13T12:59:21Z</time>
      </trkpt>
      <trkpt lat="43.6853" lon="3.62189">
        <ele>164.04</ele>
        <time>2016-01-13T12:59:43Z</time>
      </trkpt>
      <trkpt lat="43.68507" lon="3.62177">
        <ele>162.12</ele>
        <time>2016-01-13T13:00:01Z</time>
      </trkpt>
      <trkpt lat="43.68496" lon="3.62174">
        <ele>161.16</ele>
        <time>2016-01-13T13:00:12Z</time>
      </trkpt>
      <trkpt lat="43.6847" lon="3.62157">
        <ele>160.2</ele>
        <time>2016-01-13T13:00:33Z</time>
      </trkpt>
      <trkpt lat="43.68433" lon="3.6214">
        <ele>156.35</ele>
        <time>2016-01-13T13:01:05Z</time>
      </trkpt>
      <trkpt lat="43.684" lon="3.62121">
        <ele>153.95</ele>
        <time>2016-01-13T13:01:30Z</time>
      </trkpt>
      <trkpt lat="43.68357" lon="3.62104">
        <ele>152.03</ele>
        <time>2016-01-13T13:02:03Z</time>
      </trkpt>
      <trkpt lat="43.68347" lon="3.62096">
        <ele>151.54</ele>
        <time>2016-01-13T13:02:11Z</time>
      </trkpt>
      <trkpt lat="43.68305" lon="3.62092">
        <ele>148.66</ele>
        <time>2016-01-13T13:02:43Z</time>
      </trkpt>
      <trkpt lat="43.68288" lon="3.62077">
        <ele>147.7</ele>
        <time>2016-01-13T13:02:59Z</time>
      </trkpt>
      <trkpt lat="43.6828" lon="3.62064">
        <ele>146.26</ele>
        <time>2016-01-13T13:03:08Z</time>
      </trkpt>
      <trkpt lat="43.6828" lon="3.62038">
        <ele>145.78</ele>
        <time>2016-01-13T13:03:21Z</time>
      </trkpt>
      <trkpt lat="43.68282" lon="3.61986">
        <ele>140.01</ele>
        <time>2016-01-13T13:03:52Z</time>
      </trkpt>
      <trkpt lat="43.68264" lon="3.61983">
        <ele>139.05</ele>
        <time>2016-01-13T13:05:24Z</time>
      </trkpt>
      <trkpt lat="43.6827" lon="3.62003">
        <ele>139.53</ele>
        <time>2016-01-13T13:13:26Z</time>
      </trkpt>
      <trkpt lat="43.68257" lon="3.62087">
        <ele>139.53</ele>
        <time>2016-01-13T13:14:19Z</time>
      </trkpt>
      <trkpt lat="43.6825" lon="3.62117">
        <ele>140.01</ele>
        <time>2016-01-13T13:14:40Z</time>
      </trkpt>
      <trkpt lat="43.68245" lon="3.62149">
        <ele>140.01</ele>
        <time>2016-01-13T13:14:56Z</time>
      </trkpt>
      <trkpt lat="43.68241" lon="3.62165">
        <ele>140.01</ele>
        <time>2016-01-13T13:15:04Z</time>
      </trkpt>
      <trkpt lat="43.68226" lon="3.62271">
        <ele>140.01</ele>
        <time>2016-01-13T13:16:06Z</time>
      </trkpt>
      <trkpt lat="43.68204" lon="3.62374">
        <ele>140.97</ele>
        <time>2016-01-13T13:17:09Z</time>
      </trkpt>
      <trkpt lat="43.68196" lon="3.62402">
        <ele>141.45</ele>
        <time>2016-01-13T13:17:28Z</time>
      </trkpt>
      <trkpt lat="43.68174" lon="3.62466">
        <ele>142.41</ele>
        <time>2016-01-13T13:18:13Z</time>
      </trkpt>
      <trkpt lat="43.68139" lon="3.62542">
        <ele>144.34</ele>
        <time>2016-01-13T13:19:07Z</time>
      </trkpt>
      <trkpt lat="43.68125" lon="3.6258">
        <ele>144.82</ele>
        <time>2016-01-13T13:19:34Z</time>
      </trkpt>
      <trkpt lat="43.68094" lon="3.62647">
        <ele>146.26</ele>
        <time>2016-01-13T13:20:18Z</time>
      </trkpt>
      <trkpt lat="43.68022" lon="3.62814">
        <ele>150.1</ele>
        <time>2016-01-13T13:22:13Z</time>
      </trkpt>
      <trkpt lat="43.67993" lon="3.62875">
        <ele>151.06</ele>
        <time>2016-01-13T13:22:55Z</time>
      </trkpt>
      <trkpt lat="43.67988" lon="3.62895">
        <ele>152.03</ele>
        <time>2016-01-13T13:25:42Z</time>
      </trkpt>
      <trkpt lat="43.67969" lon="3.62935">
        <ele>152.99</ele>
        <time>2016-01-13T13:26:11Z</time>
      </trkpt>
      <trkpt lat="43.67959" lon="3.62963">
        <ele>153.47</ele>
        <time>2016-01-13T13:26:31Z</time>
      </trkpt>
      <trkpt lat="43.67953" lon="3.62976">
        <ele>153.47</ele>
        <time>2016-01-13T13:26:40Z</time>
      </trkpt>
      <trkpt lat="43.6794" lon="3.62997">
        <ele>154.91</ele>
        <time>2016-01-13T13:26:57Z</time>
      </trkpt>
      <trkpt lat="43.67903" lon="3.63029">
        <ele>155.87</ele>
        <time>2016-01-13T13:27:32Z</time>
      </trkpt>
      <trkpt lat="43.67898" lon="3.63055">
        <ele>156.35</ele>
        <time>2016-01-13T13:27:48Z</time>
      </trkpt>
      <trkpt lat="43.679" lon="3.63081">
        <ele>156.35</ele>
        <time>2016-01-13T13:28:03Z</time>
      </trkpt>
      <trkpt lat="43.67894" lon="3.63107">
        <ele>156.35</ele>
        <time>2016-01-13T13:28:20Z</time>
      </trkpt>
      <trkpt lat="43.67879" lon="3.63144">
        <ele>157.31</ele>
        <time>2016-01-13T13:28:47Z</time>
      </trkpt>
      <trkpt lat="43.6786" lon="3.63183">
        <ele>158.27</ele>
        <time>2016-01-13T13:29:15Z</time>
      </trkpt>
      <trkpt lat="43.67819" lon="3.63281">
        <ele>160.2</ele>
        <time>2016-01-13T13:30:24Z</time>
      </trkpt>
      <trkpt lat="43.67782" lon="3.63339">
        <ele>161.64</ele>
        <time>2016-01-13T13:31:10Z</time>
      </trkpt>
      <trkpt lat="43.67765" lon="3.63356">
        <ele>162.12</ele>
        <time>2016-01-13T13:31:27Z</time>
      </trkpt>
      <trkpt lat="43.6775" lon="3.63377">
        <ele>163.08</ele>
        <time>2016-01-13T13:31:45Z</time>
      </trkpt>
      <trkpt lat="43.67711" lon="3.63401">
        <ele>163.56</ele>
        <time>2016-01-13T13:32:25Z</time>
      </trkpt>
      <trkpt lat="43.67702" lon="3.63411">
        <ele>164.04</ele>
        <time>2016-01-13T13:32:35Z</time>
      </trkpt>
      <trkpt lat="43.67684" lon="3.63404">
        <ele>161.16</ele>
        <time>2016-01-13T13:33:01Z</time>
      </trkpt>
      <trkpt lat="43.6766" lon="3.63381">
        <ele>158.27</ele>
        <time>2016-01-13T13:34:11Z</time>
      </trkpt>
      <trkpt lat="43.67644" lon="3.63374">
        <ele>157.31</ele>
        <time>2016-01-13T13:35:40Z</time>
      </trkpt>
      <trkpt lat="43.67667" lon="3.63396">
        <ele>159.24</ele>
        <time>2016-01-13T13:39:54Z</time>
      </trkpt>
      <trkpt lat="43.67662" lon="3.63417">
        <ele>162.12</ele>
        <time>2016-01-13T13:40:19Z</time>
      </trkpt>
      <trkpt lat="43.67649" lon="3.63434">
        <ele>162.6</ele>
        <time>2016-01-13T13:40:50Z</time>
      </trkpt>
      <trkpt lat="43.67641" lon="3.63448">
        <ele>162.6</ele>
        <time>2016-01-13T13:41:05Z</time>
      </trkpt>
      <trkpt lat="43.67629" lon="3.63462">
        <ele>162.6</ele>
        <time>2016-01-13T13:41:17Z</time>
      </trkpt>
      <trkpt lat="43.67626" lon="3.63478">
        <ele>161.64</ele>
        <time>2016-01-13T13:41:34Z</time>
      </trkpt>
      <trkpt lat="43.67632" lon="3.6349">
        <ele>163.56</ele>
        <time>2016-01-13T13:41:53Z</time>
      </trkpt>
      <trkpt lat="43.67622" lon="3.63508">
        <ele>165.96</ele>
        <time>2016-01-13T13:42:33Z</time>
      </trkpt>
      <trkpt lat="43.6754" lon="3.63563">
        <ele>167.89</ele>
        <time>2016-01-13T13:44:01Z</time>
      </trkpt>
      <trkpt lat="43.67507" lon="3.6358">
        <ele>168.85</ele>
        <time>2016-01-13T13:44:29Z</time>
      </trkpt>
      <trkpt lat="43.67487" lon="3.63586">
        <ele>169.33</ele>
        <time>2016-01-13T13:44:47Z</time>
      </trkpt>
      <trkpt lat="43.67447" lon="3.63595">
        <ele>170.29</ele>
        <time>2016-01-13T13:45:26Z</time>
      </trkpt>
      <trkpt lat="43.67383" lon="3.63601">
        <ele>172.21</ele>
        <time>2016-01-13T13:46:21Z</time>
      </trkpt>
      <trkpt lat="43.67339" lon="3.63598">
        <ele>172.21</ele>
        <time>2016-01-13T13:46:57Z</time>
      </trkpt>
      <trkpt lat="43.67298" lon="3.6359">
        <ele>172.69</ele>
        <time>2016-01-13T13:47:32Z</time>
      </trkpt>
      <trkpt lat="43.67216" lon="3.63578">
        <ele>175.1</ele>
        <time>2016-01-13T13:48:47Z</time>
      </trkpt>
      <trkpt lat="43.67204" lon="3.63575">
        <ele>175.58</ele>
        <time>2016-01-13T13:48:57Z</time>
      </trkpt>
      <trkpt lat="43.67182" lon="3.63576">
        <ele>176.06</ele>
        <time>2016-01-13T13:49:14Z</time>
      </trkpt>
      <trkpt lat="43.67138" lon="3.63571">
        <ele>177.02</ele>
        <time>2016-01-13T13:49:49Z</time>
      </trkpt>
      <trkpt lat="43.67115" lon="3.63571">
        <ele>177.5</ele>
        <time>2016-01-13T13:50:07Z</time>
      </trkpt>
      <trkpt lat="43.67071" lon="3.63574">
        <ele>177.98</ele>
        <time>2016-01-13T13:50:42Z</time>
      </trkpt>
      <trkpt lat="43.6706" lon="3.63578">
        <ele>178.46</ele>
        <time>2016-01-13T13:50:52Z</time>
      </trkpt>
      <trkpt lat="43.67038" lon="3.63578">
        <ele>178.46</ele>
        <time>2016-01-13T13:51:10Z</time>
      </trkpt>
      <trkpt lat="43.66959" lon="3.63598">
        <ele>179.9</ele>
        <time>2016-01-13T13:52:13Z</time>
      </trkpt>
      <trkpt lat="43.66916" lon="3.63612">
        <ele>181.35</ele>
        <time>2016-01-13T13:52:45Z</time>
      </trkpt>
      <trkpt lat="43.66836" lon="3.63651">
        <ele>183.27</ele>
        <time>2016-01-13T13:53:52Z</time>
      </trkpt>
      <trkpt lat="43.66769" lon="3.63694">
        <ele>184.71</ele>
        <time>2016-01-13T13:54:51Z</time>
      </trkpt>
      <trkpt lat="43.66717" lon="3.63739">
        <ele>186.15</ele>
        <time>2016-01-13T13:55:39Z</time>
      </trkpt>
      <trkpt lat="43.66689" lon="3.63767">
        <ele>187.11</ele>
        <time>2016-01-13T13:56:11Z</time>
      </trkpt>
      <trkpt lat="43.66639" lon="3.63823">
        <ele>188.56</ele>
        <time>2016-01-13T13:57:07Z</time>
      </trkpt>
      <trkpt lat="43.66605" lon="3.63865">
        <ele>190</ele>
        <time>2016-01-13T13:57:45Z</time>
      </trkpt>
      <trkpt lat="43.66595" lon="3.63876">
        <ele>190.48</ele>
        <time>2016-01-13T13:57:56Z</time>
      </trkpt>
      <trkpt lat="43.66583" lon="3.63883">
        <ele>190.96</ele>
        <time>2016-01-13T13:58:06Z</time>
      </trkpt>
      <trkpt lat="43.66568" lon="3.63905">
        <ele>191.92</ele>
        <time>2016-01-13T13:58:25Z</time>
      </trkpt>
      <trkpt lat="43.66547" lon="3.63926">
        <ele>192.88</ele>
        <time>2016-01-13T13:58:49Z</time>
      </trkpt>
      <trkpt lat="43.66528" lon="3.6395">
        <ele>192.4</ele>
        <time>2016-01-13T13:59:09Z</time>
      </trkpt>
      <trkpt lat="43.66496" lon="3.63985">
        <ele>193.84</ele>
        <time>2016-01-13T13:59:40Z</time>
      </trkpt>
      <trkpt lat="43.6644" lon="3.64067">
        <ele>194.8</ele>
        <time>2016-01-13T14:00:42Z</time>
      </trkpt>
      <trkpt lat="43.66392" lon="3.64135">
        <ele>196.73</ele>
        <time>2016-01-13T14:01:40Z</time>
      </trkpt>
      <trkpt lat="43.66385" lon="3.64148">
        <ele>196.73</ele>
        <time>2016-01-13T14:02:02Z</time>
      </trkpt>
      <trkpt lat="43.66354" lon="3.64186">
        <ele>199.61</ele>
        <time>2016-01-13T14:06:39Z</time>
      </trkpt>
      <trkpt lat="43.66307" lon="3.6424">
        <ele>202.01</ele>
        <time>2016-01-13T14:07:39Z</time>
      </trkpt>
      <trkpt lat="43.66256" lon="3.64308">
        <ele>203.46</ele>
        <time>2016-01-13T14:08:39Z</time>
      </trkpt>
      <trkpt lat="43.66217" lon="3.64354">
        <ele>204.42</ele>
        <time>2016-01-13T14:09:18Z</time>
      </trkpt>
      <trkpt lat="43.66203" lon="3.64381">
        <ele>203.94</ele>
        <time>2016-01-13T14:11:22Z</time>
      </trkpt>
      <trkpt lat="43.66206" lon="3.64418">
        <ele>203.94</ele>
        <time>2016-01-13T14:12:50Z</time>
      </trkpt>
      <trkpt lat="43.66205" lon="3.64416">
        <ele>203.94</ele>
        <time>2016-01-13T14:14:39Z</time>
      </trkpt>
    </trkseg>
  </trk>
</gpx>